sensor_id;sensor_type;location;lat;lon;timestamp;pressure;altitude;pressure_sealevel;temperature;humidity
69411;BME280;56604;48.652;9.194;2023-01-31T00:00:48;97113.00;;;1.48;90.43
69411;BME280;56604;48.652;9.194;2023-01-31T00:03:14;97110.09;;;1.51;90.61
69411;BME280;56604;48.652;9.194;2023-01-31T00:05:39;97108.34;;;1.43;90.58
69411;BME280;56604;48.652;9.194;2023-01-31T00:08:04;97104.97;;;1.43;90.67
69411;BME280;56604;48.652;9.194;2023-01-31T00:10:30;97109.66;;;1.39;90.86
69411;BME280;56604;48.652;9.194;2023-01-31T00:12:56;97100.97;;;1.32;90.53
69411;BME280;56604;48.652;9.194;2023-01-31T00:15:21;97099.81;;;1.34;90.73
69411;BME280;56604;48.652;9.194;2023-01-31T00:17:46;97100.31;;;1.30;90.76
69411;BME280;56604;48.652;9.194;2023-01-31T00:20:12;97093.72;;;1.19;91.19
69411;BME280;56604;48.652;9.194;2023-01-31T00:22:37;97098.63;;;1.14;91.20
69411;BME280;56604;48.652;9.194;2023-01-31T00:25:03;97094.72;;;1.10;90.79
69411;BME280;56604;48.652;9.194;2023-01-31T00:27:29;97107.69;;;1.02;91.21
69411;BME280;56604;48.652;9.194;2023-01-31T00:29:54;97104.78;;;0.97;91.81
69411;BME280;56604;48.652;9.194;2023-01-31T00:32:19;97102.53;;;0.94;91.64
69411;BME280;56604;48.652;9.194;2023-01-31T00:34:44;97095.13;;;0.90;91.51
69411;BME280;56604;48.652;9.194;2023-01-31T00:37:10;97095.44;;;0.87;91.60
69411;BME280;56604;48.652;9.194;2023-01-31T00:39:35;97091.28;;;0.78;91.87
69411;BME280;56604;48.652;9.194;2023-01-31T00:42:00;97095.47;;;0.79;92.40
69411;BME280;56604;48.652;9.194;2023-01-31T00:44:25;97089.19;;;0.74;92.15
69411;BME280;56604;48.652;9.194;2023-01-31T00:46:51;97085.31;;;0.70;92.25
69411;BME280;56604;48.652;9.194;2023-01-31T00:49:16;97085.00;;;0.64;92.17
69411;BME280;56604;48.652;9.194;2023-01-31T00:51:42;97088.72;;;0.62;92.05
69411;BME280;56604;48.652;9.194;2023-01-31T00:54:09;97088.09;;;0.60;92.52
69411;BME280;56604;48.652;9.194;2023-01-31T00:56:34;97090.03;;;0.58;92.02
69411;BME280;56604;48.652;9.194;2023-01-31T00:58:59;97082.41;;;0.56;92.23
69411;BME280;56604;48.652;9.194;2023-01-31T01:01:27;97080.63;;;0.57;91.79
69411;BME280;56604;48.652;9.194;2023-01-31T01:03:55;97080.50;;;0.58;92.15
69411;BME280;56604;48.652;9.194;2023-01-31T01:06:21;97084.53;;;0.61;91.55
69411;BME280;56604;48.652;9.194;2023-01-31T01:08:47;97087.25;;;0.59;91.02
69411;BME280;56604;48.652;9.194;2023-01-31T01:11:15;97089.38;;;0.56;91.46
69411;BME280;56604;48.652;9.194;2023-01-31T01:13:42;97095.53;;;0.55;91.35
69411;BME280;56604;48.652;9.194;2023-01-31T01:16:12;97089.25;;;0.49;91.87
69411;BME280;56604;48.652;9.194;2023-01-31T01:18:38;97092.97;;;0.47;91.98
69411;BME280;56604;48.652;9.194;2023-01-31T01:21:11;97092.16;;;0.46;91.98
69411;BME280;56604;48.652;9.194;2023-01-31T01:23:38;97092.97;;;0.38;92.03
69411;BME280;56604;48.652;9.194;2023-01-31T01:26:05;97090.06;;;0.33;92.44
69411;BME280;56604;48.652;9.194;2023-01-31T01:28:34;97090.72;;;0.35;92.67
69411;BME280;56604;48.652;9.194;2023-01-31T01:31:06;97101.38;;;0.32;92.77
69411;BME280;56604;48.652;9.194;2023-01-31T01:33:31;97096.88;;;0.26;92.65
69411;BME280;56604;48.652;9.194;2023-01-31T01:36:04;97097.47;;;0.36;92.92
69411;BME280;56604;48.652;9.194;2023-01-31T01:38:30;97098.78;;;0.32;93.23
69411;BME280;56604;48.652;9.194;2023-01-31T01:40:55;97096.53;;;0.29;93.33
69411;BME280;56604;48.652;9.194;2023-01-31T01:44:40;97102.97;;;0.33;92.90
69411;BME280;56604;48.652;9.194;2023-01-31T01:46:38;97090.72;;;0.35;93.35
69411;BME280;56604;48.652;9.194;2023-01-31T01:49:18;97105.91;;;0.38;93.39
69411;BME280;56604;48.652;9.194;2023-01-31T01:51:46;97105.91;;;0.38;93.30
69411;BME280;56604;48.652;9.194;2023-01-31T01:54:16;97108.00;;;0.43;92.77
69411;BME280;56604;48.652;9.194;2023-01-31T01:56:46;97107.19;;;0.42;92.93
69411;BME280;56604;48.652;9.194;2023-01-31T01:59:25;97102.66;;;0.53;92.90
69411;BME280;56604;48.652;9.194;2023-01-31T02:01:54;97109.28;;;0.55;92.98
69411;BME280;56604;48.652;9.194;2023-01-31T02:04:24;97112.66;;;0.56;92.32
69411;BME280;56604;48.652;9.194;2023-01-31T02:06:52;97106.03;;;0.45;92.69
69411;BME280;56604;48.652;9.194;2023-01-31T02:09:24;97112.34;;;0.42;93.03
69411;BME280;56604;48.652;9.194;2023-01-31T02:11:54;97118.03;;;0.46;92.66
69411;BME280;56604;48.652;9.194;2023-01-31T02:14:20;97109.63;;;0.44;93.04
69411;BME280;56604;48.652;9.194;2023-01-31T02:16:45;97120.44;;;0.48;92.89
69411;BME280;56604;48.652;9.194;2023-01-31T02:19:21;97108.47;;;0.47;93.13
69411;BME280;56604;48.652;9.194;2023-01-31T02:22:15;97112.34;;;0.42;93.08
69411;BME280;56604;48.652;9.194;2023-01-31T02:25:01;97108.94;;;0.50;93.00
69411;BME280;56604;48.652;9.194;2023-01-31T02:27:59;97104.91;;;0.48;92.71
69411;BME280;56604;48.652;9.194;2023-01-31T02:33:29;97115.91;;;0.41;92.98
69411;BME280;56604;48.652;9.194;2023-01-31T02:44:19;97113.31;;;0.50;93.04
69411;BME280;56604;48.652;9.194;2023-01-31T02:50:28;97122.69;;;0.59;92.18
69411;BME280;56604;48.652;9.194;2023-01-31T02:53:03;97119.44;;;0.57;91.53
69411;BME280;56604;48.652;9.194;2023-01-31T02:55:44;97125.13;;;0.60;92.09
69411;BME280;56604;48.652;9.194;2023-01-31T02:58:34;97116.72;;;0.58;91.90
69411;BME280;56604;48.652;9.194;2023-01-31T03:01:02;97113.31;;;0.58;91.89
69411;BME280;56604;48.652;9.194;2023-01-31T03:03:31;97121.22;;;0.64;91.45
69411;BME280;56604;48.652;9.194;2023-01-31T03:08:50;97136.94;;;0.55;91.26
69411;BME280;56604;48.652;9.194;2023-01-31T03:11:16;97133.22;;;0.57;91.38
69411;BME280;56604;48.652;9.194;2023-01-31T03:16:30;97130.63;;;0.57;91.58
69411;BME280;56604;48.652;9.194;2023-01-31T03:19:27;97127.72;;;0.52;91.58
69411;BME280;56604;48.652;9.194;2023-01-31T03:22:00;97124.47;;;0.50;91.58
69411;BME280;56604;48.652;9.194;2023-01-31T03:24:28;97121.41;;;0.55;91.80
69411;BME280;56604;48.652;9.194;2023-01-31T03:26:55;97123.81;;;0.48;91.71
69411;BME280;56604;48.652;9.194;2023-01-31T03:29:22;97126.59;;;0.38;91.56
69411;BME280;56604;48.652;9.194;2023-01-31T03:31:56;97126.91;;;0.43;92.16
69411;BME280;56604;48.652;9.194;2023-01-31T03:34:23;97136.41;;;0.51;91.63
69411;BME280;56604;48.652;9.194;2023-01-31T03:37:02;97146.28;;;0.56;91.79
69411;BME280;56604;48.652;9.194;2023-01-31T03:42:05;97145.63;;;0.54;91.36
69411;BME280;56604;48.652;9.194;2023-01-31T03:45:08;97147.28;;;0.55;91.24
69411;BME280;56604;48.652;9.194;2023-01-31T03:47:44;97150.47;;;0.57;91.22
69411;BME280;56604;48.652;9.194;2023-01-31T03:50:15;97156.97;;;0.44;91.12
69411;BME280;56604;48.652;9.194;2023-01-31T03:52:50;97151.47;;;0.48;90.70
69411;BME280;56604;48.652;9.194;2023-01-31T03:55:23;97151.78;;;0.44;90.77
69411;BME280;56604;48.652;9.194;2023-01-31T03:57:53;97154.88;;;0.40;91.04
69411;BME280;56604;48.652;9.194;2023-01-31T04:00:20;97152.44;;;0.38;90.96
69411;BME280;56604;48.652;9.194;2023-01-31T04:02:49;97147.94;;;0.32;91.30
69411;BME280;56604;48.652;9.194;2023-01-31T04:05:21;97158.28;;;0.32;91.15
69411;BME280;56604;48.652;9.194;2023-01-31T04:07:47;97156.63;;;0.31;90.91
69411;BME280;56604;48.652;9.194;2023-01-31T04:10:17;97165.03;;;0.33;90.89
69411;BME280;56604;48.652;9.194;2023-01-31T04:12:44;97173.78;;;0.32;91.28
69411;BME280;56604;48.652;9.194;2023-01-31T04:15:10;97168.94;;;0.21;91.50
69411;BME280;56604;48.652;9.194;2023-01-31T04:17:36;97166.00;;;0.16;91.44
69411;BME280;56604;48.652;9.194;2023-01-31T04:20:01;97172.16;;;0.15;91.51
69411;BME280;56604;48.652;9.194;2023-01-31T04:22:27;97175.06;;;0.12;91.55
69411;BME280;56604;48.652;9.194;2023-01-31T04:24:52;97170.38;;;0.15;91.88
69411;BME280;56604;48.652;9.194;2023-01-31T04:27:17;97171.19;;;0.24;92.30
69411;BME280;56604;48.652;9.194;2023-01-31T04:29:42;97167.94;;;0.22;91.83
69411;BME280;56604;48.652;9.194;2023-01-31T04:32:10;97169.25;;;0.26;91.91
69411;BME280;56604;48.652;9.194;2023-01-31T04:34:36;97169.41;;;0.25;91.76
69411;BME280;56604;48.652;9.194;2023-01-31T04:37:01;97165.22;;;0.32;91.50
69411;BME280;56604;48.652;9.194;2023-01-31T04:39:26;97172.16;;;0.31;91.76
69411;BME280;56604;48.652;9.194;2023-01-31T04:41:52;97179.28;;;0.29;91.30
69411;BME280;56604;48.652;9.194;2023-01-31T04:44:17;97172.47;;;0.28;91.96
69411;BME280;56604;48.652;9.194;2023-01-31T04:46:42;97168.28;;;0.35;91.45
69411;BME280;56604;48.652;9.194;2023-01-31T04:49:10;97170.22;;;0.33;91.30
69411;BME280;56604;48.652;9.194;2023-01-31T04:51:36;97174.25;;;0.28;90.83
69411;BME280;56604;48.652;9.194;2023-01-31T04:54:01;97175.72;;;0.30;90.86
69411;BME280;56604;48.652;9.194;2023-01-31T04:56:26;97173.44;;;0.19;91.17
69411;BME280;56604;48.652;9.194;2023-01-31T04:58:52;97179.28;;;0.21;91.38
69411;BME280;56604;48.652;9.194;2023-01-31T05:01:17;97178.63;;;0.19;91.34
69411;BME280;56604;48.652;9.194;2023-01-31T05:03:42;97179.59;;;0.26;91.28
69411;BME280;56604;48.652;9.194;2023-01-31T05:06:10;97179.28;;;0.29;91.68
69411;BME280;56604;48.652;9.194;2023-01-31T05:08:35;97169.59;;;0.23;91.63
69411;BME280;56604;48.652;9.194;2023-01-31T05:11:02;97166.03;;;0.24;91.33
69411;BME280;56604;48.652;9.194;2023-01-31T05:13:27;97172.47;;;0.28;91.32
69411;BME280;56604;48.652;9.194;2023-01-31T05:15:54;97168.44;;;0.17;91.47
69411;BME280;56604;48.652;9.194;2023-01-31T05:18:22;97172.63;;;0.18;92.02
69411;BME280;56604;48.652;9.194;2023-01-31T05:20:47;97177.81;;;0.18;92.10
69411;BME280;56604;48.652;9.194;2023-01-31T05:23:14;97185.25;;;0.21;91.78
69411;BME280;56604;48.652;9.194;2023-01-31T05:25:39;97189.28;;;0.24;91.89
69411;BME280;56604;48.652;9.194;2023-01-31T05:28:05;97182.66;;;0.21;91.97
69411;BME280;56604;48.652;9.194;2023-01-31T05:30:30;97180.72;;;0.24;91.92
69411;BME280;56604;48.652;9.194;2023-01-31T05:32:55;97179.94;;;0.23;91.16
69411;BME280;56604;48.652;9.194;2023-01-31T05:35:21;97177.97;;;0.25;91.67
69411;BME280;56604;48.652;9.194;2023-01-31T05:37:46;97182.81;;;0.28;91.33
69411;BME280;56604;48.652;9.194;2023-01-31T05:40:14;97194.47;;;0.32;91.13
69411;BME280;56604;48.652;9.194;2023-01-31T05:42:39;97186.06;;;0.30;90.78
69411;BME280;56604;48.652;9.194;2023-01-31T05:45:06;97186.06;;;0.30;91.06
69411;BME280;56604;48.652;9.194;2023-01-31T05:47:31;97188.81;;;0.29;90.77
69411;BME280;56604;48.652;9.194;2023-01-31T05:49:57;97190.91;;;0.33;91.06
69411;BME280;56604;48.652;9.194;2023-01-31T05:52:22;97183.81;;;0.35;90.99
69411;BME280;56604;48.652;9.194;2023-01-31T05:54:47;97183.13;;;0.25;90.98
69411;BME280;56604;48.652;9.194;2023-01-31T05:57:13;97181.19;;;0.19;91.17
69411;BME280;56604;48.652;9.194;2023-01-31T05:59:39;97180.72;;;0.24;91.71
69411;BME280;56604;48.652;9.194;2023-01-31T06:02:05;97191.22;;;0.22;91.54
69411;BME280;56604;48.652;9.194;2023-01-31T06:04:30;97186.03;;;0.14;91.84
69411;BME280;56604;48.652;9.194;2023-01-31T06:06:55;97192.03;;;0.06;91.29
69411;BME280;56604;48.652;9.194;2023-01-31T06:09:20;97196.16;;;-0.09;92.11
69411;BME280;56604;48.652;9.194;2023-01-31T06:11:46;97192.97;;;-0.11;92.30
69411;BME280;56604;48.652;9.194;2023-01-31T06:14:11;97189.41;;;-0.10;92.31
69411;BME280;56604;48.652;9.194;2023-01-31T06:16:36;97193.72;;;-0.19;92.71
69411;BME280;56604;48.652;9.194;2023-01-31T06:19:02;97190.16;;;-0.26;93.27
69411;BME280;56604;48.652;9.194;2023-01-31T06:21:27;97194.34;;;-0.33;93.23
69411;BME280;56604;48.652;9.194;2023-01-31T06:23:53;97203.72;;;-0.24;93.22
69411;BME280;56604;48.652;9.194;2023-01-31T06:26:18;97200.00;;;-0.30;93.59
69411;BME280;56604;48.652;9.194;2023-01-31T06:28:43;97197.06;;;-0.35;93.29
69411;BME280;56604;48.652;9.194;2023-01-31T06:31:09;97198.03;;;-0.36;93.71
69411;BME280;56604;48.652;9.194;2023-01-31T06:33:35;97200.63;;;-0.36;93.66
69411;BME280;56604;48.652;9.194;2023-01-31T06:36:01;97205.59;;;-0.42;93.96
69411;BME280;56604;48.652;9.194;2023-01-31T06:38:27;97200.75;;;-0.46;93.79
69411;BME280;56604;48.652;9.194;2023-01-31T06:40:53;97197.88;;;-0.42;93.55
69411;BME280;56604;48.652;9.194;2023-01-31T06:43:18;97205.59;;;-0.42;94.27
69411;BME280;56604;48.652;9.194;2023-01-31T06:45:43;97196.88;;;-0.41;93.72
69411;BME280;56604;48.652;9.194;2023-01-31T06:48:10;97192.53;;;-0.41;93.82
69411;BME280;56604;48.652;9.194;2023-01-31T06:50:35;97199.28;;;-0.40;93.78
69411;BME280;56604;48.652;9.194;2023-01-31T06:53:00;97204.66;;;-0.33;94.12
69411;BME280;56604;48.652;9.194;2023-01-31T06:55:26;97196.88;;;0.17;94.48
69411;BME280;56604;48.652;9.194;2023-01-31T06:57:51;97200.53;;;-0.10;93.67
69411;BME280;56604;48.652;9.194;2023-01-31T07:00:17;97205.00;;;-0.20;93.29
69411;BME280;56604;48.652;9.194;2023-01-31T07:02:46;97200.47;;;-0.26;93.15
69411;BME280;56604;48.652;9.194;2023-01-31T07:05:13;97200.97;;;-0.31;93.80
69411;BME280;56604;48.652;9.194;2023-01-31T07:07:39;97199.84;;;-0.28;93.71
69411;BME280;56604;48.652;9.194;2023-01-31T07:10:04;97191.78;;;-0.25;93.42
69411;BME280;56604;48.652;9.194;2023-01-31T07:12:33;97191.78;;;-0.25;92.99
69411;BME280;56604;48.652;9.194;2023-01-31T07:14:58;97186.47;;;-0.15;93.58
69411;BME280;56604;48.652;9.194;2023-01-31T07:17:23;97192.47;;;-0.07;93.44
69411;BME280;56604;48.652;9.194;2023-01-31T07:19:49;97185.22;;;0.13;93.54
69411;BME280;56604;48.652;9.194;2023-01-31T07:22:14;97188.00;;;0.28;92.27
69411;BME280;56604;48.652;9.194;2023-01-31T07:24:39;97187.19;;;0.44;91.72
69411;BME280;56604;48.652;9.194;2023-01-31T07:27:05;97188.34;;;0.66;90.36
69411;BME280;56604;48.652;9.194;2023-01-31T07:29:30;97187.69;;;0.80;89.60
69411;BME280;56604;48.652;9.194;2023-01-31T07:31:56;97190.41;;;0.95;88.40
69411;BME280;56604;48.652;9.194;2023-01-31T07:34:22;97190.97;;;1.22;87.38
69411;BME280;56604;48.652;9.194;2023-01-31T07:36:48;97191.44;;;1.33;86.82
69411;BME280;56604;48.652;9.194;2023-01-31T07:39:14;97190.41;;;1.51;85.98
69411;BME280;56604;48.652;9.194;2023-01-31T07:41:39;97194.19;;;1.79;84.23
69411;BME280;56604;48.652;9.194;2023-01-31T07:44:05;97189.50;;;2.06;83.19
69411;BME280;56604;48.652;9.194;2023-01-31T07:46:33;97190.41;;;2.13;82.39
69411;BME280;56604;48.652;9.194;2023-01-31T07:48:59;97192.84;;;2.38;81.79
69411;BME280;56604;48.652;9.194;2023-01-31T07:51:24;97192.31;;;2.65;80.24
69411;BME280;56604;48.652;9.194;2023-01-31T07:53:50;97197.09;;;2.77;79.96
69411;BME280;56604;48.652;9.194;2023-01-31T07:56:18;97190.34;;;3.05;78.16
69411;BME280;56604;48.652;9.194;2023-01-31T07:58:47;97198.13;;;3.35;77.18
69411;BME280;56604;48.652;9.194;2023-01-31T08:01:18;97194.63;;;2.98;77.67
69411;BME280;56604;48.652;9.194;2023-01-31T08:04:04;97189.09;;;3.31;76.90
69411;BME280;56604;48.652;9.194;2023-01-31T08:06:30;97195.38;;;3.36;77.07
69411;BME280;56604;48.652;9.194;2023-01-31T08:08:56;97200.19;;;3.54;75.80
69411;BME280;56604;48.652;9.194;2023-01-31T08:11:22;97200.41;;;3.89;75.04
69411;BME280;56604;48.652;9.194;2023-01-31T08:13:48;97202.38;;;4.02;74.86
69411;BME280;56604;48.652;9.194;2023-01-31T08:16:13;97198.56;;;4.19;73.07
69411;BME280;56604;48.652;9.194;2023-01-31T08:18:39;97192.19;;;4.22;72.83
69411;BME280;56604;48.652;9.194;2023-01-31T08:21:05;97203.44;;;4.29;72.57
69411;BME280;56604;48.652;9.194;2023-01-31T08:23:31;97202.88;;;4.55;72.34
69411;BME280;56604;48.652;9.194;2023-01-31T08:26:02;97199.88;;;4.73;71.71
69411;BME280;56604;48.652;9.194;2023-01-31T08:28:28;97203.44;;;4.72;70.80
69411;BME280;56604;48.652;9.194;2023-01-31T08:30:54;97196.13;;;4.61;70.93
69411;BME280;56604;48.652;9.194;2023-01-31T08:33:19;97203.75;;;5.12;69.26
69411;BME280;56604;48.652;9.194;2023-01-31T08:35:44;97201.75;;;5.83;67.33
69411;BME280;56604;48.652;9.194;2023-01-31T08:38:10;97201.75;;;5.83;66.68
69411;BME280;56604;48.652;9.194;2023-01-31T08:40:35;97194.38;;;6.00;66.37
69411;BME280;56604;48.652;9.194;2023-01-31T08:43:00;97189.28;;;5.79;66.52
69411;BME280;56604;48.652;9.194;2023-01-31T08:45:27;97189.06;;;5.80;66.20
69411;BME280;56604;48.652;9.194;2023-01-31T08:47:57;97186.63;;;6.20;66.18
69411;BME280;56604;48.652;9.194;2023-01-31T08:50:25;97182.66;;;6.44;65.28
69411;BME280;56604;48.652;9.194;2023-01-31T08:52:55;97187.41;;;6.14;65.27
69411;BME280;56604;48.652;9.194;2023-01-31T08:55:21;97178.25;;;6.58;64.66
69411;BME280;56604;48.652;9.194;2023-01-31T08:57:48;97175.84;;;6.63;62.89
69411;BME280;56604;48.652;9.194;2023-01-31T09:00:14;97179.81;;;6.33;64.15
69411;BME280;56604;48.652;9.194;2023-01-31T09:02:39;97180.19;;;6.16;64.29
69411;BME280;56604;48.652;9.194;2023-01-31T09:05:05;97169.78;;;6.63;64.07
69411;BME280;56604;48.652;9.194;2023-01-31T09:07:32;97168.22;;;6.55;62.49
69411;BME280;56604;48.652;9.194;2023-01-31T09:09:58;97168.47;;;7.58;61.44
69411;BME280;56604;48.652;9.194;2023-01-31T09:12:23;97159.41;;;8.06;60.04
69411;BME280;56604;48.652;9.194;2023-01-31T09:14:49;97166.19;;;8.20;58.94
69411;BME280;56604;48.652;9.194;2023-01-31T09:17:15;97167.03;;;8.07;58.72
69411;BME280;56604;48.652;9.194;2023-01-31T09:19:40;97167.53;;;8.29;56.54
69411;BME280;56604;48.652;9.194;2023-01-31T09:22:06;97177.59;;;7.36;59.05
69411;BME280;56604;48.652;9.194;2023-01-31T09:24:31;97181.75;;;7.63;59.14
69411;BME280;56604;48.652;9.194;2023-01-31T09:26:57;97175.84;;;6.63;62.09
69411;BME280;56604;48.652;9.194;2023-01-31T09:29:23;97186.28;;;6.43;63.49
69411;BME280;56604;48.652;9.194;2023-01-31T09:31:51;97189.06;;;6.35;63.64
69411;BME280;56604;48.652;9.194;2023-01-31T09:34:18;97177.06;;;6.81;62.25
69411;BME280;56604;48.652;9.194;2023-01-31T09:36:43;97176.22;;;6.80;63.78
69411;BME280;56604;48.652;9.194;2023-01-31T09:39:11;97170.78;;;7.21;60.76
69411;BME280;56604;48.652;9.194;2023-01-31T09:41:37;97172.63;;;7.01;61.86
69411;BME280;56604;48.652;9.194;2023-01-31T09:44:10;97177.84;;;6.61;61.69
69411;BME280;56604;48.652;9.194;2023-01-31T09:46:41;97179.00;;;6.25;62.58
69411;BME280;56604;48.652;9.194;2023-01-31T09:49:15;97177.66;;;5.81;64.04
69411;BME280;56604;48.652;9.194;2023-01-31T09:51:45;97177.28;;;5.15;65.92
69411;BME280;56604;48.652;9.194;2023-01-31T09:54:20;97171.88;;;5.45;65.51
69411;BME280;56604;48.652;9.194;2023-01-31T09:56:57;97164.38;;;5.70;65.42
69411;BME280;56604;48.652;9.194;2023-01-31T09:59:31;97170.03;;;5.86;65.15
69411;BME280;56604;48.652;9.194;2023-01-31T10:07:48;97173.03;;;5.35;66.49
69411;BME280;56604;48.652;9.194;2023-01-31T10:12:53;97173.72;;;5.16;66.32
69411;BME280;56604;48.652;9.194;2023-01-31T10:15:30;97184.13;;;5.16;66.79
69411;BME280;56604;48.652;9.194;2023-01-31T10:18:08;97186.50;;;5.11;67.48
69411;BME280;56604;48.652;9.194;2023-01-31T10:20:54;97187.63;;;4.73;67.17
69411;BME280;56604;48.652;9.194;2023-01-31T10:23:34;97187.38;;;4.68;68.86
69411;BME280;56604;48.652;9.194;2023-01-31T10:26:06;97185.81;;;4.95;68.06
69411;BME280;56604;48.652;9.194;2023-01-31T10:28:40;97188.69;;;4.58;68.44
69411;BME280;56604;48.652;9.194;2023-01-31T10:34:03;97194.56;;;4.66;69.19
69411;BME280;56604;48.652;9.194;2023-01-31T10:36:45;97178.78;;;4.68;68.34
69411;BME280;56604;48.652;9.194;2023-01-31T10:39:21;97177.97;;;4.67;68.96
69411;BME280;56604;48.652;9.194;2023-01-31T10:44:23;97161.44;;;4.32;69.66
69411;BME280;56604;48.652;9.194;2023-01-31T10:46:52;97160.31;;;4.91;68.25
69411;BME280;56604;48.652;9.194;2023-01-31T10:49:22;97155.31;;;5.24;67.88
69411;BME280;56604;48.652;9.194;2023-01-31T10:54:27;97153.63;;;5.99;63.94
69411;BME280;56604;48.652;9.194;2023-01-31T10:56:57;97152.09;;;6.71;63.42
69411;BME280;56604;48.652;9.194;2023-01-31T10:59:32;97150.44;;;7.30;61.06
69411;BME280;56604;48.652;9.194;2023-01-31T11:02:02;97149.59;;;7.43;60.52
69411;BME280;56604;48.652;9.194;2023-01-31T11:04:33;97153.00;;;7.50;60.04
69411;BME280;56604;48.652;9.194;2023-01-31T11:07:01;97158.56;;;6.82;60.69
69411;BME280;56604;48.652;9.194;2023-01-31T11:09:30;97148.50;;;6.33;60.80
69411;BME280;56604;48.652;9.194;2023-01-31T11:12:03;97145.56;;;5.88;61.77
69411;BME280;56604;48.652;9.194;2023-01-31T11:14:29;97135.19;;;6.14;62.04
69411;BME280;56604;48.652;9.194;2023-01-31T11:17:11;97139.25;;;6.23;61.62
69411;BME280;56604;48.652;9.194;2023-01-31T11:19:51;97140.06;;;6.57;61.41
69411;BME280;56604;48.652;9.194;2023-01-31T11:22:22;97126.59;;;6.53;60.96
69411;BME280;56604;48.652;9.194;2023-01-31T11:24:49;97126.00;;;6.51;61.63
69411;BME280;56604;48.652;9.194;2023-01-31T11:27:27;97125.19;;;6.24;61.75
69411;BME280;56604;48.652;9.194;2023-01-31T11:29:56;97125.50;;;5.95;63.57
69411;BME280;56604;48.652;9.194;2023-01-31T11:32:26;97126.66;;;5.85;62.34
69411;BME280;56604;48.652;9.194;2023-01-31T11:35:00;97121.38;;;5.59;64.20
69411;BME280;56604;48.652;9.194;2023-01-31T11:37:28;97117.03;;;5.79;63.92
69411;BME280;56604;48.652;9.194;2023-01-31T11:39:58;97112.19;;;5.76;63.64
69411;BME280;56604;48.652;9.194;2023-01-31T11:42:25;97109.50;;;6.11;63.63
69411;BME280;56604;48.652;9.194;2023-01-31T11:45:02;97096.66;;;6.16;63.01
69411;BME280;56604;48.652;9.194;2023-01-31T11:47:51;97095.84;;;6.09;62.56
69411;BME280;56604;48.652;9.194;2023-01-31T11:50:23;97083.38;;;5.98;63.33
69411;BME280;56604;48.652;9.194;2023-01-31T11:52:54;97083.38;;;6.11;63.43
69411;BME280;56604;48.652;9.194;2023-01-31T11:55:20;97074.56;;;5.99;63.47
69411;BME280;56604;48.652;9.194;2023-01-31T11:57:56;97071.72;;;5.94;63.16
69411;BME280;56604;48.652;9.194;2023-01-31T12:00:25;97076.09;;;5.80;63.81
69411;BME280;56604;48.652;9.194;2023-01-31T12:02:58;97060.38;;;5.60;63.86
69411;BME280;56604;48.652;9.194;2023-01-31T12:05:33;97065.97;;;5.50;64.08
69411;BME280;56604;48.652;9.194;2023-01-31T12:08:00;97075.56;;;5.36;64.55
69411;BME280;56604;48.652;9.194;2023-01-31T12:10:39;97084.78;;;5.32;64.28
69411;BME280;56604;48.652;9.194;2023-01-31T12:13:17;97083.47;;;5.15;64.16
69411;BME280;56604;48.652;9.194;2023-01-31T12:18:28;97090.84;;;5.05;64.60
69411;BME280;56604;48.652;9.194;2023-01-31T12:21:19;97091.47;;;5.07;64.13
69411;BME280;56604;48.652;9.194;2023-01-31T12:34:34;97064.69;;;4.85;65.18
69411;BME280;56604;48.652;9.194;2023-01-31T12:37:39;97069.25;;;4.76;65.45
69411;BME280;56604;48.652;9.194;2023-01-31T12:40:07;97050.00;;;4.77;65.71
69411;BME280;56604;48.652;9.194;2023-01-31T12:42:57;97043.38;;;4.74;65.68
69411;BME280;56604;48.652;9.194;2023-01-31T12:45:39;97020.81;;;4.88;64.74
69411;BME280;56604;48.652;9.194;2023-01-31T12:50:47;97017.56;;;4.73;64.56
69411;BME280;56604;48.652;9.194;2023-01-31T12:53:26;97004.75;;;4.78;65.12
69411;BME280;56604;48.652;9.194;2023-01-31T12:58:53;96995.09;;;4.37;66.20
69411;BME280;56604;48.652;9.194;2023-01-31T13:01:50;97002.06;;;4.30;67.57
69411;BME280;56604;48.652;9.194;2023-01-31T13:04:40;97015.41;;;4.48;66.68
69411;BME280;56604;48.652;9.194;2023-01-31T13:09:44;97015.81;;;4.24;67.32
69411;BME280;56604;48.652;9.194;2023-01-31T13:12:19;97018.53;;;4.37;66.88
69411;BME280;56604;48.652;9.194;2023-01-31T13:15:06;97009.34;;;4.41;67.67
69411;BME280;56604;48.652;9.194;2023-01-31T13:17:33;97000.94;;;4.39;67.88
69411;BME280;56604;48.652;9.194;2023-01-31T13:20:20;96989.75;;;4.45;67.07
69411;BME280;56604;48.652;9.194;2023-01-31T13:22:51;96983.47;;;4.33;67.36
69411;BME280;56604;48.652;9.194;2023-01-31T13:25:33;96983.25;;;4.35;67.19
69411;BME280;56604;48.652;9.194;2023-01-31T13:28:01;96995.34;;;4.42;67.74
69411;BME280;56604;48.652;9.194;2023-01-31T13:30:51;96983.47;;;4.33;67.99
69411;BME280;56604;48.652;9.194;2023-01-31T13:35:55;96988.81;;;4.25;68.65
69411;BME280;56604;48.652;9.194;2023-01-31T13:38:22;96982.06;;;4.02;69.46
69411;BME280;56604;48.652;9.194;2023-01-31T13:40:51;96973.63;;;4.00;68.52
69411;BME280;56604;48.652;9.194;2023-01-31T13:43:17;96976.19;;;3.94;69.04
69411;BME280;56604;48.652;9.194;2023-01-31T13:45:47;96984.88;;;3.79;69.61
69411;BME280;56604;48.652;9.194;2023-01-31T13:48:39;96984.06;;;3.79;70.77
69411;BME280;56604;48.652;9.194;2023-01-31T13:51:13;96982.81;;;3.75;69.78
69411;BME280;56604;48.652;9.194;2023-01-31T13:53:52;96973.59;;;3.72;70.55
69411;BME280;56604;48.652;9.194;2023-01-31T13:56:41;96978.88;;;3.79;71.11
69411;BME280;56604;48.652;9.194;2023-01-31T13:59:08;96979.34;;;3.89;70.42
69411;BME280;56604;48.652;9.194;2023-01-31T14:01:41;96987.63;;;3.99;70.18
69411;BME280;56604;48.652;9.194;2023-01-31T14:09:31;96991.84;;;4.00;69.87
69411;BME280;56604;48.652;9.194;2023-01-31T14:14:38;96995.38;;;4.21;70.72
69411;BME280;56604;48.652;9.194;2023-01-31T14:17:15;97008.56;;;4.13;70.05
69411;BME280;56604;48.652;9.194;2023-01-31T14:20:24;97002.78;;;4.17;71.08
69411;BME280;56604;48.652;9.194;2023-01-31T14:25:49;96986.28;;;3.82;71.33
69411;BME280;56604;48.652;9.194;2023-01-31T14:28:14;96971.38;;;3.69;70.54
69411;BME280;56604;48.652;9.194;2023-01-31T14:30:44;96973.28;;;3.82;70.70
69411;BME280;56604;48.652;9.194;2023-01-31T14:46:20;96964.63;;;4.03;70.00
69411;BME280;56604;48.652;9.194;2023-01-31T14:49:07;96959.03;;;3.99;70.16
69411;BME280;56604;48.652;9.194;2023-01-31T15:05:05;96941.84;;;4.05;70.89